Terminal Aerodrome Forecast
Issued by NWS Pittsburgh, PA

Current Version | Previous Version | Graphics & Text | Print | Product List | Glossary On
Versions: 1 2 3 4 5 6 7 8 9 10 11 12 13 14 15 16 17 18 19 20 21 22 23 24 25 26 27 28 29 30
000
FTUS41 KPBZ 031156
TAFPIT
TAF
KPIT 031156Z 0312/0418 29010KT P6SM OVC020
     FM031500 28010G18KT P6SM OVC025
     FM032200 27006KT P6SM BKN035
     FM041500 18005KT P6SM OVC120=

USA.gov is the U.S. government's official web portal to all federal, state and local government web resources and services.